createdAt,value
2022-10-19T00:01:11.304Z,13.40
2022-10-19T00:03:39.446Z,26.10
2022-10-19T00:06:17.383Z,14.23
2022-10-19T00:08:44.956Z,18.45
2022-10-19T00:11:12.956Z,20.58
2022-10-19T00:13:40.707Z,13.27
2022-10-19T00:16:16.489Z,11.05
2022-10-19T00:18:45.495Z,19.42
2022-10-19T00:21:16.281Z,15.27
2022-10-19T00:23:44.415Z,17.80
2022-10-19T00:26:12.795Z,13.77
2022-10-19T00:28:40.831Z,13.20
2022-10-19T00:31:12.071Z,14.23
2022-10-19T00:33:39.653Z,15.18
2022-10-19T00:36:14.891Z,11.20
2022-10-19T00:38:42.691Z,10.05
2022-10-19T00:41:10.050Z,13.75
2022-10-19T00:43:54.359Z,10.10
2022-10-19T00:46:22.102Z,12.50
2022-10-19T00:48:50.448Z,6.65
2022-10-19T00:51:17.964Z,14.63
2022-10-19T00:53:45.333Z,7.65
2022-10-19T00:56:15.537Z,14.90
2022-10-19T00:58:44.505Z,11.82
2022-10-19T01:01:17.331Z,18.00
2022-10-19T01:03:45.246Z,19.08
2022-10-19T01:06:14.500Z,13.90
2022-10-19T01:08:41.849Z,13.00
2022-10-19T01:11:23.845Z,16.58
2022-10-19T01:14:48.347Z,27.10
2022-10-19T01:17:52.880Z,14.52
2022-10-19T01:20:57.120Z,18.83
2022-10-19T01:24:01.589Z,14.68
2022-10-19T01:26:43.294Z,21.55
2022-10-19T01:29:52.507Z,19.05
2022-10-19T01:32:38.663Z,18.75
2022-10-19T01:35:38.413Z,17.80
2022-10-19T01:38:22.059Z,13.35
2022-10-19T01:41:00.011Z,14.57
2022-10-19T01:43:56.464Z,20.75
2022-10-19T01:46:29.782Z,13.30
2022-10-19T01:49:04.099Z,22.02
2022-10-19T01:51:35.603Z,25.30
2022-10-19T01:54:06.710Z,11.48
2022-10-19T01:56:36.542Z,17.27
2022-10-19T01:59:07.867Z,19.27
2022-10-19T02:01:40.656Z,21.92
2022-10-19T02:04:08.929Z,12.10
2022-10-19T02:06:37.084Z,19.52
2022-10-19T02:09:04.461Z,19.13
2022-10-19T02:11:32.554Z,17.02
2022-10-19T02:14:06.337Z,14.45
2022-10-19T02:16:40.746Z,23.17
2022-10-19T02:19:10.297Z,18.75
2022-10-19T02:21:38.072Z,26.75
2022-10-19T02:24:05.436Z,16.83
2022-10-19T02:26:33.056Z,16.15
2022-10-19T02:29:00.429Z,28.40
2022-10-19T02:31:28.243Z,8.60
2022-10-19T02:33:55.625Z,28.00
2022-10-19T02:36:23.539Z,27.48
2022-10-19T02:38:50.798Z,18.48
2022-10-19T02:41:32.978Z,22.42
2022-10-19T02:44:13.707Z,22.33
2022-10-19T02:46:44.317Z,16.63
2022-10-19T02:49:13.112Z,16.23
2022-10-19T02:52:02.357Z,23.33
2022-10-19T02:54:29.836Z,19.95
2022-10-19T02:56:57.572Z,12.98
2022-10-19T02:59:25.235Z,10.57
2022-10-19T03:01:52.539Z,11.50
2022-10-19T03:04:19.921Z,23.77
2022-10-19T03:06:47.337Z,16.40
2022-10-19T03:09:15.037Z,15.38
2022-10-19T03:11:42.237Z,17.77
2022-10-19T03:14:09.533Z,22.23
2022-10-19T03:16:36.790Z,15.88
2022-10-19T03:19:04.123Z,13.13
2022-10-19T03:21:31.399Z,19.02
2022-10-19T03:24:00.890Z,27.63
2022-10-19T03:26:28.135Z,21.58
2022-10-19T03:28:55.485Z,18.17
2022-10-19T03:31:22.890Z,26.17
2022-10-19T03:33:50.483Z,18.77
2022-10-19T03:36:24.758Z,31.45
2022-10-19T03:38:57.753Z,22.17
2022-10-19T03:41:27.454Z,17.60
2022-10-19T03:43:55.176Z,23.08
2022-10-19T03:46:22.680Z,17.85
2022-10-19T03:48:50.090Z,18.08
2022-10-19T03:51:23.278Z,20.65
2022-10-19T03:53:59.401Z,21.20
2022-10-19T03:56:28.263Z,13.48
2022-10-19T03:58:57.977Z,17.83
2022-10-19T04:01:28.494Z,18.27
2022-10-19T04:03:57.534Z,23.10
2022-10-19T04:06:34.151Z,27.38
2022-10-19T04:09:02.213Z,25.40
2022-10-19T04:11:30.961Z,21.15
2022-10-19T04:13:59.241Z,26.58
2022-10-19T04:16:29.159Z,19.45
2022-10-19T04:18:56.870Z,18.80
2022-10-19T04:21:36.258Z,35.67
2022-10-19T04:24:08.295Z,15.55
2022-10-19T04:26:40.717Z,22.77
2022-10-19T04:29:08.730Z,28.33
2022-10-19T04:31:36.587Z,21.45
2022-10-19T04:34:04.631Z,19.80
2022-10-19T04:36:32.366Z,12.05
2022-10-19T04:38:59.931Z,46.00
2022-10-19T04:41:27.406Z,31.73
2022-10-19T04:43:57.514Z,17.73
2022-10-19T04:46:26.577Z,35.50
2022-10-19T04:48:54.654Z,13.10
2022-10-19T04:51:22.983Z,19.33
2022-10-19T04:53:51.666Z,14.13
2022-10-19T04:56:22.656Z,16.25
2022-10-19T04:58:50.331Z,35.20
2022-10-19T05:01:20.450Z,20.35
2022-10-19T05:03:48.593Z,26.60
2022-10-19T05:06:16.442Z,16.58
2022-10-19T05:08:43.528Z,23.08
2022-10-19T05:11:14.145Z,16.50
2022-10-19T05:13:42.483Z,12.85
2022-10-19T05:16:13.882Z,25.15
2022-10-19T05:18:41.244Z,13.90
2022-10-19T05:21:11.169Z,22.50
2022-10-19T05:23:38.747Z,21.10
2022-10-19T05:26:15.483Z,24.33
2022-10-19T05:28:43.048Z,31.45
2022-10-19T05:31:19.396Z,33.58
2022-10-19T05:33:47.298Z,26.65
2022-10-19T05:36:22.002Z,19.17
2022-10-19T05:38:50.564Z,16.70
2022-10-19T05:41:18.453Z,22.02
2022-10-19T05:43:46.742Z,34.08
2022-10-19T05:46:19.658Z,16.15
2022-10-19T05:48:47.401Z,27.63
2022-10-19T05:51:18.128Z,26.50
2022-10-19T05:53:46.175Z,27.98
2022-10-19T05:56:17.099Z,23.10
2022-10-19T05:58:44.750Z,22.45
2022-10-19T06:01:12.498Z,29.98
2022-10-19T06:03:40.173Z,36.63
2022-10-19T06:06:08.965Z,21.80
2022-10-19T06:08:37.458Z,26.58
2022-10-19T06:11:28.959Z,26.73
2022-10-19T06:13:58.234Z,25.20
2022-10-19T06:16:27.067Z,28.50
2022-10-19T06:18:54.977Z,28.05
2022-10-19T06:21:26.583Z,37.90
2022-10-19T06:23:56.322Z,27.35
2022-10-19T06:26:25.274Z,23.77
2022-10-19T06:28:56.722Z,27.35
2022-10-19T06:31:24.030Z,32.67
2022-10-19T06:33:51.403Z,22.65
2022-10-19T06:36:21.267Z,26.23
2022-10-19T06:38:49.201Z,35.53
2022-10-19T06:41:17.308Z,33.55
2022-10-19T06:43:48.525Z,37.63
2022-10-19T06:46:20.352Z,35.00
2022-10-19T06:48:58.407Z,30.55
2022-10-19T06:51:27.607Z,36.85
2022-10-19T06:53:57.071Z,30.23
2022-10-19T06:56:26.192Z,20.58
2022-10-19T06:58:54.657Z,19.33
2022-10-19T07:01:22.513Z,22.35
2022-10-19T07:03:54.093Z,22.52
2022-10-19T07:06:21.926Z,19.42
2022-10-19T07:08:49.849Z,20.80
2022-10-19T07:11:20.519Z,20.98
2022-10-19T07:13:48.434Z,33.30
2022-10-19T07:16:21.200Z,27.50
2022-10-19T07:18:50.944Z,20.95
2022-10-19T07:21:20.050Z,25.33
2022-10-19T07:23:47.819Z,24.52
2022-10-19T07:26:28.099Z,39.65
2022-10-19T07:28:57.056Z,42.05
2022-10-19T07:31:25.722Z,26.77
2022-10-19T07:33:58.329Z,23.55
2022-10-19T07:36:26.838Z,22.60
2022-10-19T07:38:54.656Z,20.00
2022-10-19T07:41:24.172Z,23.38
2022-10-19T07:43:52.401Z,24.20
2022-10-19T07:46:23.480Z,33.17
2022-10-19T07:48:50.953Z,31.55
2022-10-19T07:51:19.815Z,29.40
2022-10-19T07:53:47.571Z,28.45
2022-10-19T07:56:20.412Z,13.90
2022-10-19T07:58:49.497Z,30.63
2022-10-19T08:01:19.858Z,14.85
2022-10-19T08:06:36.645Z,26.65
2022-10-19T08:09:05.329Z,21.75
2022-10-19T08:11:35.529Z,21.50
2022-10-19T08:14:04.096Z,33.10
2022-10-19T08:16:34.396Z,44.42
2022-10-19T08:19:11.329Z,26.05
2022-10-19T08:21:40.471Z,29.27
2022-10-19T08:24:08.203Z,23.50
2022-10-19T08:26:38.199Z,20.08
2022-10-19T08:29:08.090Z,27.55
2022-10-19T08:31:35.480Z,22.60
2022-10-19T08:34:03.630Z,10.85
2022-10-19T08:36:32.480Z,25.63
2022-10-19T08:38:59.921Z,26.73
2022-10-19T08:41:45.034Z,44.10
2022-10-19T08:44:41.373Z,26.63
2022-10-19T08:47:23.555Z,24.42
2022-10-19T08:49:51.474Z,32.88
2022-10-19T08:52:32.069Z,24.60
2022-10-19T08:55:06.061Z,34.38
2022-10-19T08:57:58.403Z,30.73
2022-10-19T09:00:41.107Z,22.17
2022-10-19T09:03:32.129Z,25.17
2022-10-19T09:06:56.496Z,29.85
2022-10-19T09:09:25.035Z,35.38
2022-10-19T09:11:58.414Z,17.63
2022-10-19T09:14:36.358Z,22.08
2022-10-19T09:17:11.461Z,34.60
2022-10-19T09:19:38.807Z,23.52
2022-10-19T09:22:18.367Z,13.32
2022-10-19T09:25:20.098Z,12.80
2022-10-19T09:28:27.412Z,25.30
2022-10-19T09:30:59.781Z,21.15
2022-10-19T09:33:39.393Z,20.23
2022-10-19T09:36:08.236Z,15.93
2022-10-19T09:38:35.566Z,27.02
2022-10-19T09:41:23.977Z,23.95
2022-10-19T09:43:54.478Z,24.13
2022-10-19T09:46:52.171Z,11.73
2022-10-19T09:49:42.568Z,36.20
2022-10-19T09:52:35.707Z,29.15
2022-10-19T09:55:15.692Z,42.10
2022-10-19T09:57:48.477Z,36.20
2022-10-19T10:00:32.086Z,54.70
2022-10-19T10:02:59.550Z,32.47
2022-10-19T10:05:39.082Z,34.22
2022-10-19T10:08:15.450Z,32.50
2022-10-19T10:10:46.610Z,11.37
2022-10-19T10:13:18.970Z,24.20
2022-10-19T10:15:59.061Z,31.33
2022-10-19T10:18:28.247Z,20.88
2022-10-19T10:21:01.314Z,22.70
2022-10-19T10:23:32.354Z,29.15
2022-10-19T10:26:02.201Z,16.90
2022-10-19T10:28:30.731Z,30.80
2022-10-19T10:31:08.864Z,23.70
2022-10-19T10:33:44.921Z,22.08
2022-10-19T10:36:13.674Z,21.90
2022-10-19T10:38:49.213Z,34.63
2022-10-19T10:41:20.307Z,22.17
2022-10-19T10:43:59.728Z,29.08
2022-10-19T10:46:42.760Z,26.08
2022-10-19T10:49:21.593Z,24.77
2022-10-19T10:51:56.152Z,35.03
2022-10-19T10:54:31.769Z,20.75
2022-10-19T10:57:13.964Z,26.20
2022-10-19T10:59:51.466Z,32.50
2022-10-19T11:04:57.500Z,27.60
2022-10-19T11:07:26.777Z,25.08
2022-10-19T11:09:58.654Z,32.85
2022-10-19T11:12:36.295Z,27.98
2022-10-19T11:15:13.551Z,33.30
2022-10-19T11:20:19.262Z,26.33
2022-10-19T11:23:09.788Z,19.30
2022-10-19T11:25:58.200Z,30.58
2022-10-19T11:28:28.401Z,26.98
2022-10-19T11:30:59.393Z,27.15
2022-10-19T11:33:53.361Z,25.48
2022-10-19T11:36:50.485Z,33.90
2022-10-19T11:39:38.905Z,33.15
2022-10-19T11:42:19.371Z,26.33
2022-10-19T11:45:24.167Z,44.88
2022-10-19T11:48:17.523Z,30.70
2022-10-19T11:51:20.998Z,27.23
2022-10-19T11:54:25.914Z,38.20
2022-10-19T11:57:06.380Z,20.25
2022-10-19T12:00:13.601Z,23.20
2022-10-19T12:03:07.429Z,28.13
2022-10-19T12:05:59.475Z,19.67
2022-10-19T12:09:07.153Z,28.52
2022-10-19T12:11:37.389Z,20.80
2022-10-19T12:14:13.720Z,19.17
2022-10-19T12:16:50.141Z,27.17
2022-10-19T12:19:24.968Z,21.23
2022-10-19T12:21:58.293Z,20.52
2022-10-19T12:24:28.490Z,32.38
2022-10-19T12:26:56.450Z,24.08
2022-10-19T12:29:29.530Z,34.42
2022-10-19T12:31:59.483Z,39.42
2022-10-19T12:34:38.680Z,34.05
2022-10-19T12:37:24.395Z,25.98
2022-10-19T12:40:13.062Z,24.27
2022-10-19T12:43:08.078Z,25.83
2022-10-19T12:45:48.571Z,25.40
2022-10-19T12:48:21.792Z,23.23
2022-10-19T12:50:49.034Z,19.90
2022-10-19T12:56:34.181Z,32.65
2022-10-19T12:59:01.873Z,38.08
2022-10-19T13:01:34.998Z,21.90
2022-10-19T13:04:12.837Z,23.02
2022-10-19T13:06:57.323Z,36.28
2022-10-19T13:09:32.820Z,23.15
2022-10-19T13:12:21.765Z,20.67
2022-10-19T13:14:55.082Z,15.57
2022-10-19T13:17:37.168Z,15.10
2022-10-19T13:20:33.808Z,26.73
2022-10-19T13:23:01.357Z,21.40
2022-10-19T13:25:30.164Z,28.63
2022-10-19T13:28:06.243Z,22.30
2022-10-19T13:30:36.324Z,29.92
2022-10-19T13:33:22.655Z,23.52
2022-10-19T13:36:06.130Z,17.83
2022-10-19T13:38:48.290Z,32.25
2022-10-19T13:41:24.031Z,19.33
2022-10-19T13:44:13.952Z,24.85
2022-10-19T13:46:47.158Z,28.00
2022-10-19T13:49:51.787Z,21.20
2022-10-19T13:52:51.450Z,66.88
2022-10-19T13:55:41.427Z,18.77
2022-10-19T13:58:14.279Z,27.15
2022-10-19T14:00:58.188Z,25.20
2022-10-19T14:03:55.896Z,27.23
2022-10-19T14:06:50.722Z,16.58
2022-10-19T14:09:26.999Z,25.23
2022-10-19T14:11:58.851Z,26.07
2022-10-19T14:14:28.604Z,21.52
2022-10-19T14:17:01.415Z,32.03
2022-10-19T14:19:43.596Z,28.05
2022-10-19T14:22:30.286Z,25.88
2022-10-19T14:25:16.128Z,39.30
2022-10-19T14:27:44.161Z,16.45
2022-10-19T14:30:25.349Z,30.92
2022-10-19T14:32:56.839Z,15.68
2022-10-19T14:35:34.378Z,26.45
2022-10-19T14:38:03.233Z,21.92
2022-10-19T14:40:38.757Z,27.23
2022-10-19T14:43:23.564Z,20.02
2022-10-19T14:46:11.030Z,28.80
2022-10-19T14:48:45.453Z,26.45
2022-10-19T14:51:37.377Z,25.38
2022-10-19T14:54:17.003Z,29.13
2022-10-19T14:56:58.572Z,16.17
2022-10-19T14:59:43.614Z,29.85
2022-10-19T15:02:26.693Z,29.42
2022-10-19T15:04:56.885Z,26.90
2022-10-19T15:07:40.793Z,29.55
2022-10-19T15:10:34.910Z,31.77
2022-10-19T15:13:06.487Z,26.17
2022-10-19T15:15:35.551Z,27.23
2022-10-19T15:18:04.419Z,23.50
2022-10-19T15:20:44.080Z,25.25
2022-10-19T15:23:35.454Z,30.55
2022-10-19T15:26:17.304Z,25.48
2022-10-19T15:28:45.500Z,19.30
2022-10-19T15:31:26.596Z,28.83
2022-10-19T15:34:02.072Z,32.15
2022-10-19T15:36:32.798Z,36.28
2022-10-19T15:39:18.482Z,28.33
2022-10-19T15:41:52.428Z,26.00
2022-10-19T15:44:40.403Z,36.78
2022-10-19T15:50:06.518Z,26.20
2022-10-19T15:52:34.489Z,18.10
2022-10-19T15:55:01.942Z,26.45
2022-10-19T15:57:33.782Z,21.75
2022-10-19T16:00:13.360Z,31.20
2022-10-19T16:02:40.936Z,34.35
2022-10-19T16:05:08.965Z,27.65
2022-10-19T16:07:38.832Z,28.50
2022-10-19T16:10:08.146Z,15.23
2022-10-19T16:12:35.409Z,31.55
2022-10-19T16:15:02.788Z,23.80
2022-10-19T16:17:30.042Z,17.05
2022-10-19T16:19:57.289Z,29.63
2022-10-19T16:22:24.526Z,25.60
2022-10-19T16:24:51.886Z,22.63
2022-10-19T16:27:19.167Z,26.00
2022-10-19T16:29:46.525Z,36.78
2022-10-19T16:32:14.371Z,30.90
2022-10-19T16:34:41.734Z,24.25
2022-10-19T16:37:08.980Z,26.42
2022-10-19T16:39:36.343Z,17.05
2022-10-19T16:42:04.728Z,28.42
2022-10-19T16:44:32.773Z,31.17
2022-10-19T16:47:00.197Z,24.67
2022-10-19T16:49:27.784Z,13.90
2022-10-19T16:51:57.416Z,45.42
2022-10-19T16:54:26.719Z,46.28
2022-10-19T16:56:55.633Z,31.85
2022-10-19T16:59:23.046Z,28.08
2022-10-19T17:01:50.633Z,32.38
2022-10-19T17:04:18.130Z,32.03
2022-10-19T17:06:45.644Z,28.90
2022-10-19T17:12:00.447Z,27.23
2022-10-19T17:14:27.978Z,31.98
2022-10-19T17:16:55.274Z,28.42
2022-10-19T17:19:23.198Z,32.35
2022-10-19T17:21:50.572Z,47.50
2022-10-19T17:24:22.084Z,38.15
2022-10-19T17:26:52.203Z,29.27
2022-10-19T17:29:21.196Z,21.63
2022-10-19T17:31:49.181Z,31.73
2022-10-19T17:34:17.627Z,34.13
2022-10-19T17:36:47.388Z,43.53
2022-10-19T17:39:22.140Z,27.27
2022-10-19T17:41:52.905Z,40.35
2022-10-19T17:44:21.396Z,30.88
2022-10-19T17:46:48.837Z,32.92
2022-10-19T17:49:16.421Z,35.97
2022-10-19T17:51:43.757Z,40.97
2022-10-19T17:54:15.048Z,36.78
2022-10-19T17:56:45.374Z,32.92
2022-10-19T17:59:13.228Z,28.88
2022-10-19T18:01:40.849Z,34.00
2022-10-19T18:04:08.229Z,34.25
2022-10-19T18:06:37.157Z,49.03
2022-10-19T18:09:07.367Z,39.55
2022-10-19T18:11:39.199Z,25.08
2022-10-19T18:14:08.342Z,43.10
2022-10-19T18:16:45.301Z,28.67
2022-10-19T18:19:14.695Z,43.40
2022-10-19T18:21:44.444Z,29.10
2022-10-19T18:24:19.041Z,40.08
2022-10-19T18:26:47.697Z,37.10
2022-10-19T18:29:26.134Z,39.05
2022-10-19T18:31:53.879Z,39.78
2022-10-19T18:34:24.260Z,32.80
2022-10-19T18:36:52.381Z,39.38
2022-10-19T18:39:19.761Z,32.38
2022-10-19T18:41:51.676Z,31.02
2022-10-19T18:44:23.615Z,36.70
2022-10-19T18:46:54.914Z,34.05
2022-10-19T18:49:22.335Z,35.10
2022-10-19T18:51:54.034Z,36.00
2022-10-19T18:54:24.237Z,31.85
2022-10-19T18:56:51.562Z,30.88
2022-10-19T18:59:19.174Z,40.05
2022-10-19T19:01:46.658Z,45.45
2022-10-19T19:04:13.965Z,41.38
2022-10-19T19:06:42.121Z,32.85
2022-10-19T19:09:11.516Z,42.83
2022-10-19T19:11:40.896Z,41.60
2022-10-19T19:14:16.743Z,53.67
2022-10-19T19:16:45.355Z,34.72
2022-10-19T19:19:14.618Z,33.15
2022-10-19T19:21:44.342Z,33.45
2022-10-19T19:24:18.858Z,36.60
2022-10-19T19:26:50.014Z,29.50
2022-10-19T19:29:18.187Z,50.50
2022-10-19T19:31:45.561Z,30.08
2022-10-19T19:34:13.018Z,41.42
2022-10-19T19:36:48.079Z,22.90
2022-10-19T19:39:21.331Z,43.03
2022-10-19T19:41:49.660Z,33.38
2022-10-19T19:44:17.565Z,40.95
2022-10-19T19:46:44.918Z,30.73
2022-10-19T19:49:12.437Z,30.67
2022-10-19T19:51:39.669Z,32.85
2022-10-19T19:54:07.081Z,39.33
2022-10-19T19:56:34.659Z,41.03
2022-10-19T19:59:03.590Z,48.80
2022-10-19T20:01:32.091Z,47.97
2022-10-19T20:06:31.164Z,45.63
2022-10-19T20:08:58.682Z,39.97
2022-10-19T20:11:28.391Z,40.60
2022-10-19T20:13:56.300Z,47.45
2022-10-19T20:16:29.140Z,36.90
2022-10-19T20:19:09.588Z,44.42
2022-10-19T20:21:37.296Z,44.40
2022-10-19T20:24:04.937Z,41.10
2022-10-19T20:26:32.925Z,44.53
2022-10-19T20:29:02.179Z,45.08
2022-10-19T20:31:31.469Z,43.17
2022-10-19T20:33:58.953Z,39.92
2022-10-19T20:36:26.549Z,41.28
2022-10-19T20:38:56.544Z,35.35
2022-10-19T20:41:25.740Z,34.30
2022-10-19T20:43:53.786Z,41.40
2022-10-19T20:46:23.595Z,41.33
2022-10-19T20:48:51.992Z,48.45
2022-10-19T20:51:20.609Z,46.75
2022-10-19T20:53:50.434Z,42.55
2022-10-19T20:56:21.602Z,47.15
2022-10-19T20:58:56.406Z,48.75
2022-10-19T21:01:24.163Z,31.90
2022-10-19T21:03:57.238Z,56.17
2022-10-19T21:06:26.841Z,41.92
2022-10-19T21:08:54.892Z,47.47
2022-10-19T21:11:33.861Z,31.90
2022-10-19T21:14:04.898Z,43.28
2022-10-19T21:16:34.014Z,42.35
2022-10-19T21:19:02.810Z,40.15
2022-10-19T21:21:35.889Z,51.13
2022-10-19T21:24:10.630Z,47.22
2022-10-19T21:26:38.518Z,46.47
2022-10-19T21:29:09.577Z,43.85
2022-10-19T21:31:39.284Z,63.03
2022-10-19T21:34:08.823Z,46.83
2022-10-19T21:36:36.212Z,44.42
2022-10-19T21:39:04.345Z,49.67
2022-10-19T21:41:32.415Z,61.75
2022-10-19T21:44:00.549Z,46.53
2022-10-19T21:46:27.971Z,48.42
2022-10-19T21:48:55.550Z,42.97
2022-10-19T21:51:28.979Z,44.58
2022-10-19T21:53:56.667Z,44.90
2022-10-19T21:56:24.346Z,40.88
2022-10-19T21:58:53.609Z,57.40
2022-10-19T22:01:24.350Z,52.60
2022-10-19T22:03:56.766Z,70.90
2022-10-19T22:06:25.445Z,45.20
2022-10-19T22:08:53.624Z,40.10
2022-10-19T22:11:21.522Z,36.25
2022-10-19T22:13:49.028Z,53.55
2022-10-19T22:16:19.026Z,41.33
2022-10-19T22:18:47.758Z,30.73
2022-10-19T22:21:20.412Z,43.25
2022-10-19T22:23:56.256Z,34.92
2022-10-19T22:26:25.966Z,42.10
2022-10-19T22:28:56.803Z,51.47
2022-10-19T22:31:25.722Z,49.00
2022-10-19T22:33:53.693Z,46.88
2022-10-19T22:36:20.954Z,46.15
2022-10-19T22:38:48.599Z,40.58
2022-10-19T22:41:15.898Z,39.20
2022-10-19T22:43:43.145Z,41.28
2022-10-19T22:46:10.497Z,42.42
2022-10-19T22:48:37.891Z,43.50
2022-10-19T22:51:05.239Z,47.55
2022-10-19T22:53:32.537Z,41.83
2022-10-19T22:55:59.825Z,47.10
2022-10-19T22:58:27.120Z,55.58
2022-10-19T23:01:14.886Z,46.42
2022-10-19T23:06:12.425Z,47.80
2022-10-19T23:08:40.248Z,47.40
2022-10-19T23:11:07.920Z,44.53
2022-10-19T23:13:35.239Z,49.75
2022-10-19T23:16:02.851Z,41.33
2022-10-19T23:18:34.630Z,35.30
2022-10-19T23:21:05.357Z,59.53
2022-10-19T23:23:34.199Z,40.58
2022-10-19T23:26:03.250Z,47.13
2022-10-19T23:28:31.738Z,46.92
2022-10-19T23:31:04.560Z,47.47
2022-10-19T23:33:32.859Z,47.50
2022-10-19T23:36:07.279Z,64.13
2022-10-19T23:38:35.406Z,44.60
2022-10-19T23:41:03.029Z,50.03
2022-10-19T23:43:30.434Z,47.78
2022-10-19T23:45:57.801Z,40.90
2022-10-19T23:48:25.306Z,42.70
2022-10-19T23:51:05.195Z,71.18
2022-10-19T23:53:38.530Z,47.90
2022-10-19T23:56:14.751Z,54.40
2022-10-19T23:58:42.370Z,55.63
